createdAt,value
2019-05-05T00:01:52.896Z,4.23
2019-05-05T00:04:54.460Z,4.00
2019-05-05T00:07:31.565Z,3.80
2019-05-05T00:10:00.021Z,3.90
2019-05-05T00:12:59.990Z,4.23
2019-05-05T00:16:04.540Z,3.80
2019-05-05T00:18:34.632Z,4.13
2019-05-05T00:21:04.629Z,4.27
2019-05-05T00:23:34.576Z,4.37
2019-05-05T00:26:04.421Z,4.47
2019-05-05T00:28:32.904Z,4.60
2019-05-05T00:31:01.390Z,4.13
2019-05-05T00:33:29.875Z,4.73
2019-05-05T00:35:58.591Z,4.10
2019-05-05T00:38:27.042Z,4.53
2019-05-05T00:40:55.647Z,4.03
2019-05-05T00:43:25.288Z,4.50
2019-05-05T00:45:56.365Z,4.03
2019-05-05T00:48:35.048Z,4.70
2019-05-05T00:51:04.640Z,4.00
2019-05-05T00:53:34.298Z,4.60
2019-05-05T00:56:04.955Z,4.17
2019-05-05T00:58:35.331Z,4.13
2019-05-05T01:01:28.763Z,4.13
2019-05-05T01:03:57.502Z,4.67
2019-05-05T01:06:28.340Z,3.77
2019-05-05T01:08:56.882Z,4.03
2019-05-05T01:11:25.744Z,4.23
2019-05-05T01:13:54.792Z,4.40
2019-05-05T01:16:24.753Z,4.67
2019-05-05T01:18:55.397Z,4.33
2019-05-05T01:21:24.501Z,4.10
2019-05-05T01:23:54.844Z,4.50
2019-05-05T01:26:24.833Z,4.20
2019-05-05T01:28:53.426Z,4.00
2019-05-05T01:31:22.474Z,4.30
2019-05-05T01:34:04.905Z,4.30
2019-05-05T01:36:34.525Z,4.80
2019-05-05T01:39:34.635Z,3.93
2019-05-05T01:42:09.146Z,4.50
2019-05-05T01:44:37.603Z,3.93
2019-05-05T01:47:06.099Z,4.63
2019-05-05T01:49:34.831Z,3.97
2019-05-05T01:52:04.378Z,4.03
2019-05-05T01:54:35.159Z,4.27
2019-05-05T01:57:05.453Z,4.33
2019-05-05T01:59:35.323Z,4.13
2019-05-05T02:02:04.431Z,4.30
2019-05-05T02:04:34.289Z,3.40
2019-05-05T02:07:05.290Z,4.23
2019-05-05T02:09:35.360Z,4.70
2019-05-05T02:12:05.131Z,4.47
2019-05-05T02:14:35.221Z,3.83
2019-05-05T02:17:05.061Z,4.30
2019-05-05T02:19:35.048Z,4.07
2019-05-05T02:22:05.342Z,3.77
2019-05-05T02:24:35.288Z,4.17
2019-05-05T02:27:05.156Z,5.20
2019-05-05T02:29:55.766Z,4.30
2019-05-05T02:32:45.175Z,3.60
2019-05-05T02:35:16.446Z,4.73
2019-05-05T02:37:46.015Z,3.33
2019-05-05T02:40:15.993Z,4.00
2019-05-05T02:42:45.576Z,4.13
2019-05-05T02:45:35.270Z,3.87
2019-05-05T02:48:11.250Z,3.30
2019-05-05T02:51:02.269Z,4.47
2019-05-05T02:53:34.142Z,4.70
2019-05-05T02:56:04.296Z,4.50
2019-05-05T02:58:33.967Z,3.80
2019-05-05T03:01:09.612Z,4.60
2019-05-05T03:03:38.086Z,3.93
2019-05-05T03:06:06.561Z,4.83
2019-05-05T03:08:35.056Z,4.30
2019-05-05T03:11:03.953Z,4.43
2019-05-05T03:13:33.685Z,4.37
2019-05-05T03:16:16.891Z,4.67
2019-05-05T03:18:45.344Z,5.07
2019-05-05T03:21:14.081Z,4.33
2019-05-05T03:23:44.049Z,4.23
2019-05-05T03:26:14.050Z,4.20
2019-05-05T03:28:46.321Z,3.57
2019-05-05T03:31:15.985Z,4.60
2019-05-05T03:33:45.886Z,4.60
2019-05-05T03:36:14.775Z,4.87
2019-05-05T03:38:44.370Z,5.03
2019-05-05T03:41:20.302Z,4.60
2019-05-05T03:44:04.833Z,4.60
2019-05-05T03:46:34.436Z,4.23
2019-05-05T03:49:04.820Z,4.20
2019-05-05T03:51:34.510Z,5.47
2019-05-05T03:54:04.347Z,5.37
2019-05-05T03:56:34.700Z,5.20
2019-05-05T03:59:04.919Z,4.83
2019-05-05T04:02:03.802Z,4.90
2019-05-05T04:04:35.312Z,5.87
2019-05-05T04:07:04.762Z,4.53
2019-05-05T04:09:34.517Z,4.80
2019-05-05T04:12:04.440Z,5.80
2019-05-05T04:14:34.752Z,5.47
2019-05-05T04:17:24.390Z,4.17
2019-05-05T04:19:54.250Z,5.90
2019-05-05T04:22:23.787Z,5.27
2019-05-05T04:24:54.154Z,5.90
2019-05-05T04:27:23.886Z,5.00
2019-05-05T04:29:54.298Z,4.53
2019-05-05T04:32:24.437Z,5.80
2019-05-05T04:34:54.295Z,4.87
2019-05-05T04:37:23.915Z,4.63
2019-05-05T04:39:53.717Z,4.97
2019-05-05T04:42:24.488Z,4.37
2019-05-05T04:44:53.850Z,5.13
2019-05-05T04:47:27.360Z,4.30
2019-05-05T04:50:04.319Z,5.03
2019-05-05T04:52:34.349Z,4.80
2019-05-05T04:55:03.896Z,4.00
2019-05-05T04:57:32.721Z,4.90
2019-05-05T05:00:01.172Z,3.87
2019-05-05T05:02:53.890Z,4.77
2019-05-05T05:05:26.685Z,4.03
2019-05-05T05:07:58.035Z,3.63
2019-05-05T05:10:25.756Z,3.93
2019-05-05T05:12:54.230Z,5.00
2019-05-05T05:15:23.880Z,4.37
2019-05-05T05:18:08.505Z,4.50
2019-05-05T05:20:37.195Z,4.70
2019-05-05T05:23:05.706Z,4.17
2019-05-05T05:25:34.796Z,4.87
2019-05-05T05:28:04.171Z,4.33
2019-05-05T05:30:34.689Z,4.67
2019-05-05T05:33:04.380Z,4.03
2019-05-05T05:35:33.665Z,3.80
2019-05-05T05:38:04.447Z,3.53
2019-05-05T05:40:39.023Z,3.90
2019-05-05T05:43:10.008Z,4.83
2019-05-05T05:46:00.118Z,4.40
2019-05-05T05:48:34.181Z,3.50
2019-05-05T05:51:06.212Z,2.70
2019-05-05T05:53:35.000Z,4.07
2019-05-05T05:56:04.331Z,4.00
2019-05-05T05:58:33.788Z,3.63
2019-05-05T06:01:04.342Z,3.07
2019-05-05T06:03:33.964Z,3.20
2019-05-05T06:06:04.523Z,3.53
2019-05-05T06:08:34.582Z,3.13
2019-05-05T06:11:04.418Z,3.60
2019-05-05T06:13:33.685Z,3.73
2019-05-05T06:16:04.147Z,3.77
2019-05-05T06:18:34.359Z,3.27
2019-05-05T06:21:04.474Z,3.60
2019-05-05T06:23:34.426Z,3.77
2019-05-05T06:26:06.899Z,3.37
2019-05-05T06:28:34.196Z,2.93
2019-05-05T06:31:04.729Z,3.70
2019-05-05T06:33:34.753Z,3.47
2019-05-05T06:36:03.783Z,3.37
2019-05-05T06:38:34.364Z,3.80
2019-05-05T06:41:24.945Z,3.30
2019-05-05T06:44:11.408Z,3.17
2019-05-05T06:47:04.681Z,2.90
2019-05-05T06:49:34.492Z,2.90
2019-05-05T06:52:04.089Z,2.63
2019-05-05T06:54:34.628Z,2.93
2019-05-05T06:57:04.465Z,1.90
2019-05-05T06:59:34.940Z,2.17
2019-05-05T07:02:04.230Z,2.23
2019-05-05T07:04:33.987Z,2.23
2019-05-05T07:07:02.602Z,1.73
2019-05-05T07:09:33.469Z,1.87
2019-05-05T07:12:01.599Z,1.50
2019-05-05T07:14:30.046Z,1.50
2019-05-05T07:16:58.606Z,1.37
2019-05-05T07:19:27.082Z,1.30
2019-05-05T07:21:55.775Z,1.13
2019-05-05T07:24:24.248Z,1.13
2019-05-05T07:26:54.159Z,1.20
2019-05-05T07:29:23.909Z,1.47
2019-05-05T07:31:54.522Z,1.67
2019-05-05T07:34:24.186Z,1.70
2019-05-05T07:36:54.838Z,1.27
2019-05-05T07:39:23.829Z,1.30
2019-05-05T07:41:54.197Z,1.70
2019-05-05T07:44:29.034Z,1.20
2019-05-05T07:46:54.366Z,1.77
2019-05-05T07:49:24.376Z,1.40
2019-05-05T07:51:54.716Z,1.30
2019-05-05T07:54:23.716Z,1.60
2019-05-05T07:56:53.823Z,1.60
2019-05-05T07:59:23.862Z,1.30
2019-05-05T08:01:54.558Z,1.00
2019-05-05T08:04:24.246Z,1.13
2019-05-05T08:06:53.838Z,1.10
2019-05-05T08:09:24.690Z,1.10
2019-05-05T08:11:54.167Z,1.33
2019-05-05T08:14:24.555Z,1.00
2019-05-05T08:17:14.486Z,1.00
2019-05-05T08:19:46.032Z,0.90
2019-05-05T08:22:14.681Z,1.50
2019-05-05T08:25:05.371Z,1.73
2019-05-05T08:27:53.755Z,1.60
2019-05-05T08:30:33.507Z,1.00
2019-05-05T08:33:01.699Z,1.63
2019-05-05T08:35:30.162Z,2.07
2019-05-05T08:37:59.183Z,2.37
2019-05-05T08:40:27.645Z,1.70
2019-05-05T08:42:56.123Z,1.70
2019-05-05T08:45:26.750Z,1.80
2019-05-05T08:47:54.838Z,1.53
2019-05-05T08:50:26.755Z,1.43
2019-05-05T08:52:53.784Z,2.50
2019-05-05T08:55:24.450Z,2.50
2019-05-05T08:57:54.017Z,1.90
2019-05-05T09:00:24.420Z,2.60
2019-05-05T09:02:54.349Z,2.37
2019-05-05T09:05:23.824Z,2.47
2019-05-05T09:07:54.612Z,3.13
2019-05-05T09:10:23.749Z,3.20
2019-05-05T09:12:54.138Z,3.23
2019-05-05T09:15:24.307Z,4.00
2019-05-05T09:17:54.523Z,3.80
2019-05-05T09:20:24.201Z,3.50
2019-05-05T09:22:53.548Z,3.40
2019-05-05T09:25:38.789Z,3.77
2019-05-05T09:28:25.529Z,2.73
2019-05-05T09:30:54.012Z,4.03
2019-05-05T09:33:24.639Z,3.57
2019-05-05T09:35:54.187Z,3.73
2019-05-05T09:38:23.912Z,2.90
2019-05-05T09:40:54.286Z,4.10
2019-05-05T09:43:24.055Z,3.40
2019-05-05T09:45:54.492Z,3.10
2019-05-05T09:48:24.269Z,3.67
2019-05-05T09:50:54.082Z,2.97
2019-05-05T09:53:23.798Z,2.87
2019-05-05T09:55:54.748Z,3.30
2019-05-05T09:58:24.186Z,3.00
2019-05-05T10:00:54.591Z,4.63
2019-05-05T10:03:23.162Z,4.63
2019-05-05T10:05:53.658Z,3.70
2019-05-05T10:08:23.665Z,3.97
2019-05-05T10:10:52.233Z,4.77
2019-05-05T10:13:21.281Z,4.13
2019-05-05T10:15:50.042Z,3.30
2019-05-05T10:18:18.510Z,4.30
2019-05-05T10:20:46.979Z,3.90
2019-05-05T10:23:15.438Z,4.27
2019-05-05T10:25:47.194Z,4.47
2019-05-05T10:28:15.820Z,4.13
2019-05-05T10:30:44.578Z,4.00
2019-05-05T10:33:14.274Z,3.27
2019-05-05T10:35:43.769Z,4.27
2019-05-05T10:38:14.201Z,4.50
2019-05-05T10:40:44.700Z,3.73
2019-05-05T10:43:14.827Z,3.83
2019-05-05T10:45:44.057Z,3.77
2019-05-05T10:48:14.361Z,3.13
2019-05-05T10:50:44.470Z,3.57
2019-05-05T10:53:13.662Z,4.03
2019-05-05T10:55:42.218Z,3.47
2019-05-05T10:58:10.700Z,3.40
2019-05-05T11:00:56.328Z,2.83
2019-05-05T11:03:24.965Z,2.83
2019-05-05T11:05:53.905Z,3.27
2019-05-05T11:08:24.015Z,4.27
2019-05-05T11:10:52.672Z,4.00
2019-05-05T11:13:21.144Z,3.23
2019-05-05T11:15:49.672Z,2.80
2019-05-05T11:18:18.372Z,3.83
2019-05-05T11:20:46.965Z,3.20
2019-05-05T11:23:15.499Z,3.07
2019-05-05T11:25:44.400Z,3.17
2019-05-05T11:28:12.959Z,3.33
2019-05-05T11:30:42.524Z,3.00
2019-05-05T11:33:28.565Z,3.07
2019-05-05T11:36:04.536Z,2.83
2019-05-05T11:38:33.947Z,3.30
2019-05-05T11:41:04.765Z,3.10
2019-05-05T11:43:33.827Z,2.93
2019-05-05T11:46:02.627Z,3.30
2019-05-05T11:48:31.058Z,3.80
2019-05-05T11:50:59.697Z,2.53
2019-05-05T11:53:28.178Z,2.70
2019-05-05T11:55:56.650Z,2.77
2019-05-05T11:58:25.139Z,3.27
2019-05-05T12:00:54.511Z,3.00
2019-05-05T12:03:23.227Z,2.17
2019-05-05T12:05:51.681Z,2.80
2019-05-05T12:08:20.261Z,2.37
2019-05-05T12:10:55.583Z,2.27
2019-05-05T12:13:24.026Z,2.70
2019-05-05T12:16:13.585Z,3.40
2019-05-05T12:18:44.210Z,3.20
2019-05-05T12:21:13.986Z,2.83
2019-05-05T12:23:44.423Z,3.30
2019-05-05T12:26:31.761Z,3.47
2019-05-05T12:29:25.709Z,4.67
2019-05-05T12:31:54.227Z,3.00
2019-05-05T12:34:23.631Z,3.03
2019-05-05T12:36:53.905Z,2.83
2019-05-05T12:39:22.577Z,3.07
2019-05-05T12:41:51.097Z,3.43
2019-05-05T12:44:25.206Z,3.70
2019-05-05T12:47:23.625Z,3.80
2019-05-05T12:49:52.135Z,3.70
2019-05-05T12:52:22.453Z,3.23
2019-05-05T12:54:50.911Z,2.70
2019-05-05T12:57:19.477Z,3.00
2019-05-05T12:59:47.948Z,2.73
2019-05-05T13:02:16.643Z,2.83
2019-05-05T13:04:45.130Z,3.23
2019-05-05T13:07:14.701Z,2.97
2019-05-05T13:09:44.095Z,2.73
2019-05-05T13:12:14.821Z,2.97
2019-05-05T13:14:43.898Z,2.90
2019-05-05T13:17:14.163Z,3.23
2019-05-05T13:19:52.880Z,3.17
2019-05-05T13:22:39.199Z,3.03
2019-05-05T13:25:27.198Z,2.83
2019-05-05T13:27:57.417Z,3.37
2019-05-05T13:30:26.183Z,3.23
2019-05-05T13:32:54.797Z,3.30
2019-05-05T13:35:23.524Z,2.87
2019-05-05T13:37:52.234Z,2.60
2019-05-05T13:40:20.702Z,2.80
2019-05-05T13:42:49.187Z,2.83
2019-05-05T13:45:39.606Z,2.80
2019-05-05T13:48:08.297Z,2.37
2019-05-05T13:50:39.814Z,3.13
2019-05-05T13:53:08.274Z,2.57
2019-05-05T13:55:36.867Z,3.50
2019-05-05T13:58:08.554Z,2.10
2019-05-05T14:00:36.209Z,2.23
2019-05-05T14:03:04.788Z,2.40
2019-05-05T14:05:34.357Z,2.40
2019-05-05T14:08:04.165Z,2.47
2019-05-05T14:10:32.777Z,2.53
2019-05-05T14:13:03.677Z,2.83
2019-05-05T14:15:33.983Z,2.13
2019-05-05T14:18:03.783Z,2.90
2019-05-05T14:20:34.503Z,2.20
2019-05-05T14:23:03.854Z,2.77
2019-05-05T14:25:32.709Z,2.97
2019-05-05T14:28:03.717Z,3.13
2019-05-05T14:30:57.177Z,2.90
2019-05-05T14:33:31.441Z,3.13
2019-05-05T14:36:18.920Z,3.00
2019-05-05T14:38:53.928Z,3.30
2019-05-05T14:41:22.845Z,2.00
2019-05-05T14:43:53.815Z,3.07
2019-05-05T14:46:23.385Z,2.70
2019-05-05T14:48:53.541Z,3.20
2019-05-05T14:51:21.994Z,3.00
2019-05-05T14:53:50.476Z,2.93
2019-05-05T14:56:19.196Z,2.77
2019-05-05T14:58:47.654Z,2.93
2019-05-05T15:01:16.123Z,3.13
2019-05-05T15:03:44.643Z,3.40
2019-05-05T15:06:18.745Z,3.07
2019-05-05T15:09:09.045Z,3.40
2019-05-05T15:11:50.462Z,3.53
2019-05-05T15:14:18.939Z,3.20
2019-05-05T15:16:47.501Z,3.03
2019-05-05T15:19:16.042Z,2.60
2019-05-05T15:21:44.535Z,3.33
2019-05-05T15:24:13.831Z,3.57
2019-05-05T15:26:49.785Z,3.03
2019-05-05T15:29:12.691Z,4.13
2019-05-05T15:31:41.175Z,3.80
2019-05-05T15:34:09.743Z,3.80
2019-05-05T15:36:38.210Z,3.47
2019-05-05T15:39:08.043Z,4.77
2019-05-05T15:41:36.863Z,3.60
2019-05-05T15:44:05.624Z,4.07
2019-05-05T15:46:34.104Z,5.00
2019-05-05T15:49:04.212Z,3.80
2019-05-05T15:51:34.365Z,4.77
2019-05-05T15:54:03.917Z,4.07
2019-05-05T15:56:34.032Z,4.07
2019-05-05T15:59:02.739Z,4.23
2019-05-05T16:01:31.232Z,3.87
2019-05-05T16:03:59.697Z,4.70
2019-05-05T16:06:28.175Z,4.17
2019-05-05T16:08:56.936Z,4.00
2019-05-05T16:11:26.949Z,3.93
2019-05-05T16:13:55.468Z,3.87
2019-05-05T16:16:55.592Z,3.50
2019-05-05T16:19:50.446Z,3.80
2019-05-05T16:22:26.047Z,3.37
2019-05-05T16:25:14.290Z,3.70
2019-05-05T16:27:44.573Z,3.93
2019-05-05T16:30:14.484Z,3.57
2019-05-05T16:32:43.000Z,3.67
2019-05-05T16:35:11.535Z,3.83
2019-05-05T16:37:40.326Z,3.37
2019-05-05T16:40:09.984Z,3.70
2019-05-05T16:42:38.580Z,3.63
2019-05-05T16:45:07.130Z,3.30
2019-05-05T16:47:35.610Z,3.20
2019-05-05T16:50:04.438Z,3.13
2019-05-05T16:52:37.841Z,3.40
2019-05-05T16:55:14.818Z,3.60
2019-05-05T16:57:43.802Z,2.87
2019-05-05T17:00:12.381Z,2.70
2019-05-05T17:02:40.864Z,3.00
2019-05-05T17:05:09.342Z,3.00
2019-05-05T17:07:37.841Z,2.50
2019-05-05T17:10:06.396Z,2.27
2019-05-05T17:12:34.876Z,3.07
2019-05-05T17:15:24.429Z,3.63
2019-05-05T17:17:58.548Z,3.70
2019-05-05T17:20:28.424Z,3.23
2019-05-05T17:22:59.563Z,3.30
2019-05-05T17:25:28.010Z,3.77
2019-05-05T17:27:56.449Z,3.80
2019-05-05T17:30:27.066Z,3.13
2019-05-05T17:32:55.140Z,3.57
2019-05-05T17:35:24.058Z,3.57
2019-05-05T17:37:53.872Z,3.13
2019-05-05T17:40:50.801Z,3.60
2019-05-05T17:43:34.069Z,3.10
2019-05-05T17:46:08.906Z,3.40
2019-05-05T17:48:44.194Z,3.93
2019-05-05T17:51:23.589Z,3.33
2019-05-05T17:54:00.347Z,3.40
2019-05-05T17:56:28.828Z,3.63
2019-05-05T17:58:57.311Z,3.10
2019-05-05T18:01:26.007Z,3.40
2019-05-05T18:03:54.721Z,3.40
2019-05-05T18:06:45.086Z,4.00
2019-05-05T18:09:19.902Z,3.40
2019-05-05T18:12:04.382Z,3.60
2019-05-05T18:14:33.570Z,3.77
2019-05-05T18:17:04.121Z,4.23
2019-05-05T18:19:34.030Z,3.80
2019-05-05T18:22:02.615Z,3.87
2019-05-05T18:24:31.311Z,3.73
2019-05-05T18:26:59.744Z,3.60
2019-05-05T18:29:28.192Z,3.57
2019-05-05T18:31:56.893Z,3.53
2019-05-05T18:34:25.349Z,3.50
2019-05-05T18:36:54.419Z,3.07
2019-05-05T18:39:24.681Z,3.60
2019-05-05T18:42:14.616Z,3.17
2019-05-05T18:44:45.329Z,3.80
2019-05-05T18:47:18.182Z,3.70
2019-05-05T18:49:46.044Z,4.40
2019-05-05T18:52:14.530Z,3.83
2019-05-05T18:54:43.608Z,3.50
2019-05-05T18:57:12.619Z,4.27
2019-05-05T18:59:41.411Z,2.90
2019-05-05T19:02:19.318Z,3.37
2019-05-05T19:05:09.923Z,3.03
2019-05-05T19:07:54.478Z,3.77
2019-05-05T19:10:12.028Z,3.30
2019-05-05T19:12:40.855Z,3.13
2019-05-05T19:15:09.286Z,3.40
2019-05-05T19:17:38.019Z,3.30
2019-05-05T19:20:14.662Z,3.53
2019-05-05T19:22:43.557Z,3.00
2019-05-05T19:25:17.878Z,3.03
2019-05-05T19:27:46.386Z,3.77
2019-05-05T19:30:14.965Z,3.37
2019-05-05T19:32:43.827Z,3.20
2019-05-05T19:35:12.286Z,2.80
2019-05-05T19:37:40.965Z,2.70
2019-05-05T19:40:09.748Z,3.23
2019-05-05T19:42:38.213Z,2.80
2019-05-05T19:45:06.864Z,4.10
2019-05-05T19:47:35.343Z,4.10
2019-05-05T19:50:18.931Z,4.13
2019-05-05T19:52:47.405Z,2.93
2019-05-05T19:55:15.915Z,4.63
2019-05-05T19:57:44.629Z,3.13
2019-05-05T20:00:14.585Z,3.40
2019-05-05T20:02:43.869Z,3.83
2019-05-05T20:05:13.768Z,2.70
2019-05-05T20:07:43.919Z,3.57
2019-05-05T20:10:14.546Z,3.17
2019-05-05T20:12:44.831Z,3.50
2019-05-05T20:15:18.336Z,2.77
2019-05-05T20:17:46.828Z,3.27
2019-05-05T20:20:16.750Z,3.53
2019-05-05T20:22:45.462Z,3.50
2019-05-05T20:25:14.183Z,3.33
2019-05-05T20:27:42.935Z,3.10
2019-05-05T20:30:11.412Z,3.80
2019-05-05T20:32:45.814Z,3.47
2019-05-05T20:35:20.265Z,3.07
2019-05-05T20:37:54.171Z,3.53
2019-05-05T20:40:25.297Z,4.07
2019-05-05T20:42:54.261Z,2.90
2019-05-05T20:45:25.908Z,3.13
2019-05-05T20:47:54.382Z,3.10
2019-05-05T20:50:24.718Z,3.00
2019-05-05T20:52:53.662Z,3.40
2019-05-05T20:55:22.170Z,2.23
2019-05-05T20:57:50.614Z,3.20
2019-05-05T21:00:19.077Z,3.53
2019-05-05T21:02:47.548Z,3.63
2019-05-05T21:05:16.030Z,3.53
2019-05-05T21:07:44.510Z,3.30
2019-05-05T21:10:14.371Z,3.27
2019-05-05T21:12:45.425Z,3.07
2019-05-05T21:15:13.461Z,3.17
2019-05-05T21:17:41.950Z,3.37
2019-05-05T21:20:10.888Z,3.33
2019-05-05T21:22:53.910Z,3.00
2019-05-05T21:25:24.833Z,2.97
2019-05-05T21:27:53.373Z,2.20
2019-05-05T21:30:23.725Z,2.67
2019-05-05T21:32:54.468Z,2.87
2019-05-05T21:35:24.036Z,3.27
2019-05-05T21:37:54.305Z,3.20
2019-05-05T21:40:25.036Z,2.77
2019-05-05T21:42:54.291Z,2.87
2019-05-05T21:45:22.859Z,2.90
2019-05-05T21:47:51.313Z,2.97
2019-05-05T21:50:24.590Z,2.73
2019-05-05T21:53:04.580Z,2.73
2019-05-05T21:55:41.201Z,3.27
2019-05-05T21:58:15.425Z,2.63
2019-05-05T22:01:04.192Z,3.00
2019-05-05T22:03:35.186Z,2.97
2019-05-05T22:06:03.827Z,2.80
2019-05-05T22:08:33.679Z,3.27
2019-05-05T22:11:03.963Z,2.70
2019-05-05T22:13:36.206Z,3.80
2019-05-05T22:16:04.067Z,5.10
2019-05-05T22:18:32.746Z,5.87
2019-05-05T22:21:06.377Z,4.97
2019-05-05T22:23:36.815Z,4.50
2019-05-05T22:26:05.298Z,4.17
2019-05-05T22:28:34.245Z,3.07
2019-05-05T22:31:04.688Z,4.13
2019-05-05T22:33:34.000Z,2.83
2019-05-05T22:36:06.730Z,3.63
2019-05-05T22:38:33.966Z,2.97
2019-05-05T22:41:02.621Z,3.00
2019-05-05T22:43:31.104Z,2.50
2019-05-05T22:45:59.918Z,3.10
2019-05-05T22:48:28.373Z,3.00
2019-05-05T22:50:56.824Z,3.00
2019-05-05T22:53:25.273Z,3.60
2019-05-05T22:55:54.044Z,3.87
2019-05-05T22:58:24.051Z,3.33
2019-05-05T23:00:54.672Z,4.17
2019-05-05T23:03:38.022Z,3.50
2019-05-05T23:06:09.928Z,3.40
2019-05-05T23:08:38.615Z,3.10
2019-05-05T23:11:07.069Z,3.17
2019-05-05T23:13:35.573Z,3.60
2019-05-05T23:16:19.953Z,3.30
2019-05-05T23:18:48.424Z,3.73
2019-05-05T23:21:29.737Z,3.37
2019-05-05T23:24:19.843Z,3.00
2019-05-05T23:26:49.393Z,3.43
2019-05-05T23:29:18.096Z,3.17
2019-05-05T23:31:46.561Z,4.20
2019-05-05T23:34:15.022Z,3.57
2019-05-05T23:36:44.302Z,3.87
2019-05-05T23:39:13.564Z,3.67
2019-05-05T23:41:42.314Z,3.73
2019-05-05T23:44:10.777Z,3.70
2019-05-05T23:46:39.229Z,3.63
2019-05-05T23:49:07.691Z,4.13
2019-05-05T23:51:36.142Z,3.80
2019-05-05T23:54:04.622Z,3.83
2019-05-05T23:56:34.996Z,3.60
2019-05-05T23:59:04.231Z,3.20
